createdAt,value
2022-08-19T00:01:45.905Z,19.30
2022-08-19T00:04:22.826Z,20.13
2022-08-19T00:06:50.894Z,18.75
2022-08-19T00:09:20.737Z,17.20
2022-08-19T00:11:49.041Z,18.05
2022-08-19T00:14:18.618Z,19.33
2022-08-19T00:16:49.221Z,20.67
2022-08-19T00:19:17.907Z,19.17
2022-08-19T00:21:45.936Z,19.55
2022-08-19T00:24:15.721Z,19.33
2022-08-19T00:26:44.705Z,19.55
2022-08-19T00:29:14.086Z,19.65
2022-08-19T00:31:42.783Z,19.33
2022-08-19T00:34:12.722Z,18.63
2022-08-19T00:36:40.950Z,18.63
2022-08-19T00:39:09.352Z,19.90
2022-08-19T00:41:37.371Z,20.48
2022-08-19T00:44:09.550Z,19.52
2022-08-19T00:46:39.454Z,18.05
2022-08-19T00:49:15.571Z,15.75
2022-08-19T00:51:45.966Z,16.92
2022-08-19T00:54:14.085Z,19.65
2022-08-19T00:56:42.900Z,20.38
2022-08-19T00:59:11.835Z,18.80
2022-08-19T01:01:42.046Z,20.33
2022-08-19T01:04:10.203Z,19.15
2022-08-19T01:06:41.905Z,18.42
2022-08-19T01:09:10.725Z,19.15
2022-08-19T01:11:42.882Z,19.55
2022-08-19T01:14:12.294Z,25.80
2022-08-19T01:16:42.824Z,21.40
2022-08-19T01:19:20.313Z,20.05
2022-08-19T01:21:55.434Z,16.35
2022-08-19T01:24:24.784Z,18.83
2022-08-19T01:26:52.803Z,17.52
2022-08-19T01:29:21.388Z,17.52
2022-08-19T01:31:53.110Z,17.80
2022-08-19T01:34:21.465Z,15.30
2022-08-19T01:36:50.169Z,18.85
2022-08-19T01:39:22.270Z,17.52
2022-08-19T01:41:53.225Z,17.95
2022-08-19T01:44:24.893Z,18.63
2022-08-19T01:46:53.478Z,17.77
2022-08-19T01:49:24.321Z,18.48
2022-08-19T01:51:53.012Z,17.40
2022-08-19T01:54:27.457Z,15.43
2022-08-19T01:57:06.915Z,16.88
2022-08-19T01:59:37.361Z,16.67
2022-08-19T02:02:09.332Z,16.63
2022-08-19T02:04:38.884Z,19.70
2022-08-19T02:07:07.001Z,16.73
2022-08-19T02:09:35.100Z,17.05
2022-08-19T02:12:05.261Z,15.20
2022-08-19T02:14:35.555Z,14.40
2022-08-19T02:17:03.836Z,16.33
2022-08-19T02:19:33.394Z,14.75
2022-08-19T02:22:01.865Z,15.75
2022-08-19T02:24:30.054Z,13.25
2022-08-19T02:26:59.665Z,13.10
2022-08-19T02:29:29.058Z,14.90
2022-08-19T02:31:57.437Z,17.17
2022-08-19T02:34:26.039Z,14.88
2022-08-19T02:36:54.164Z,16.67
2022-08-19T02:39:21.170Z,15.70
2022-08-19T02:41:50.344Z,18.23
2022-08-19T02:44:29.749Z,16.77
2022-08-19T02:47:00.857Z,15.27
2022-08-19T02:49:28.865Z,16.05
2022-08-19T02:51:56.816Z,16.58
2022-08-19T02:54:24.831Z,15.40
2022-08-19T02:56:52.755Z,14.77
2022-08-19T02:59:22.963Z,14.27
2022-08-19T03:01:51.310Z,15.88
2022-08-19T03:04:21.185Z,18.33
2022-08-19T03:06:49.566Z,19.08
2022-08-19T03:09:18.526Z,15.98
2022-08-19T03:11:46.705Z,15.10
2022-08-19T03:14:16.847Z,14.82
2022-08-19T03:16:47.466Z,15.63
2022-08-19T03:19:17.425Z,14.32
2022-08-19T03:21:47.714Z,15.77
2022-08-19T03:24:16.522Z,16.60
2022-08-19T03:26:47.283Z,15.60
2022-08-19T03:29:16.073Z,15.38
2022-08-19T03:31:58.714Z,13.50
2022-08-19T03:34:28.655Z,14.25
2022-08-19T03:37:01.079Z,14.15
2022-08-19T03:39:29.504Z,14.23
2022-08-19T03:42:47.952Z,17.27
2022-08-19T03:44:51.536Z,16.25
2022-08-19T03:47:19.460Z,15.15
2022-08-19T03:49:47.562Z,13.75
2022-08-19T03:52:17.089Z,14.60
2022-08-19T03:54:45.895Z,13.95
2022-08-19T03:57:13.817Z,14.15
2022-08-19T03:59:41.943Z,15.13
2022-08-19T04:02:12.676Z,14.40
2022-08-19T04:04:44.057Z,14.25
2022-08-19T04:07:16.594Z,15.73
2022-08-19T04:09:46.155Z,13.88
2022-08-19T04:12:14.160Z,14.45
2022-08-19T04:14:42.302Z,16.27
2022-08-19T04:17:10.445Z,15.00
2022-08-19T04:19:39.531Z,14.15
2022-08-19T04:22:08.079Z,14.85
2022-08-19T04:24:37.128Z,17.10
2022-08-19T04:27:07.436Z,14.32
2022-08-19T04:29:35.820Z,14.40
2022-08-19T04:32:08.822Z,16.60
2022-08-19T04:35:02.055Z,16.75
2022-08-19T04:37:27.445Z,13.88
2022-08-19T04:40:19.980Z,15.15
2022-08-19T04:42:49.391Z,12.68
2022-08-19T04:45:17.713Z,16.60
2022-08-19T04:47:48.188Z,18.70
2022-08-19T04:50:26.279Z,13.13
2022-08-19T04:52:54.479Z,14.05
2022-08-19T04:55:22.746Z,15.25
2022-08-19T04:57:52.168Z,19.27
2022-08-19T05:00:20.283Z,17.33
2022-08-19T05:02:50.130Z,16.85
2022-08-19T05:05:19.070Z,15.25
2022-08-19T05:07:47.149Z,14.95
2022-08-19T05:10:15.584Z,13.55
2022-08-19T05:12:43.630Z,15.55
2022-08-19T05:15:13.176Z,16.77
2022-08-19T05:18:02.092Z,17.30
2022-08-19T05:20:47.836Z,19.05
2022-08-19T05:23:19.470Z,15.63
2022-08-19T05:25:51.085Z,15.73
2022-08-19T05:28:19.328Z,20.13
2022-08-19T05:30:49.094Z,16.90
2022-08-19T05:33:17.065Z,15.60
2022-08-19T05:35:45.074Z,15.98
2022-08-19T05:38:13.580Z,15.43
2022-08-19T05:40:41.701Z,17.05
2022-08-19T05:43:10.599Z,15.27
2022-08-19T05:45:41.455Z,13.63
2022-08-19T05:48:12.171Z,14.02
2022-08-19T05:50:41.235Z,16.58
2022-08-19T05:53:10.181Z,16.38
2022-08-19T05:55:39.043Z,13.80
2022-08-19T05:58:08.361Z,14.15
2022-08-19T06:00:36.781Z,12.90
2022-08-19T06:03:11.891Z,14.05
2022-08-19T06:05:49.477Z,14.68
2022-08-19T06:08:33.685Z,16.60
2022-08-19T06:11:16.018Z,14.90
2022-08-19T06:13:46.033Z,11.50
2022-08-19T06:16:14.501Z,15.52
2022-08-19T06:18:44.042Z,12.27
2022-08-19T06:21:13.492Z,13.63
2022-08-19T06:23:41.581Z,15.57
2022-08-19T06:26:13.706Z,13.80
2022-08-19T06:28:43.713Z,14.60
2022-08-19T06:31:12.304Z,12.60
2022-08-19T06:33:40.525Z,13.38
2022-08-19T06:36:10.049Z,12.30
2022-08-19T06:38:39.377Z,12.15
2022-08-19T06:41:08.193Z,12.55
2022-08-19T06:43:37.041Z,11.95
2022-08-19T06:46:14.608Z,11.02
2022-08-19T06:48:45.301Z,12.45
2022-08-19T06:51:16.531Z,11.65
2022-08-19T06:56:26.850Z,13.13
2022-08-19T06:58:55.341Z,13.20
2022-08-19T07:01:23.760Z,12.18
2022-08-19T07:03:52.128Z,14.18
2022-08-19T07:09:12.226Z,11.05
2022-08-19T07:11:40.714Z,8.57
2022-08-19T07:14:19.617Z,13.40
2022-08-19T07:16:50.108Z,9.00
2022-08-19T07:19:19.863Z,9.40
2022-08-19T07:21:48.827Z,9.52
2022-08-19T07:24:18.693Z,8.35
2022-08-19T07:26:47.400Z,9.60
2022-08-19T07:29:23.759Z,9.35
2022-08-19T07:31:57.177Z,8.15
2022-08-19T07:34:26.123Z,8.52
2022-08-19T07:36:55.093Z,8.85
2022-08-19T07:39:27.140Z,7.93
2022-08-19T07:41:56.759Z,6.57
2022-08-19T07:44:25.227Z,10.15
2022-08-19T07:46:56.567Z,10.00
2022-08-19T07:49:25.188Z,9.27
2022-08-19T07:51:56.982Z,6.68
2022-08-19T07:54:29.417Z,10.85
2022-08-19T07:56:57.835Z,8.98
2022-08-19T07:59:26.819Z,8.40
2022-08-19T08:01:54.937Z,7.68
2022-08-19T08:04:37.367Z,9.23
2022-08-19T08:07:20.494Z,7.40
2022-08-19T08:09:50.292Z,7.53
2022-08-19T08:12:34.383Z,7.60
2022-08-19T08:15:12.716Z,7.75
2022-08-19T08:17:49.297Z,6.68
2022-08-19T08:20:21.133Z,6.85
2022-08-19T08:23:07.386Z,6.57
2022-08-19T08:25:38.708Z,7.72
2022-08-19T08:28:08.418Z,5.47
2022-08-19T08:30:42.394Z,6.55
2022-08-19T08:33:13.447Z,5.78
2022-08-19T08:35:43.788Z,6.07
2022-08-19T08:38:11.742Z,7.07
2022-08-19T08:40:45.886Z,6.13
2022-08-19T08:43:26.567Z,7.97
2022-08-19T08:46:04.799Z,5.95
2022-08-19T08:48:39.884Z,5.93
2022-08-19T08:51:14.756Z,6.30
2022-08-19T08:53:51.265Z,7.20
2022-08-19T08:56:26.312Z,5.60
2022-08-19T08:59:00.084Z,6.10
2022-08-19T09:01:30.282Z,5.50
2022-08-19T09:04:01.045Z,7.63
2022-08-19T09:06:40.787Z,6.95
2022-08-19T09:09:18.651Z,6.68
2022-08-19T09:11:57.938Z,6.70
2022-08-19T09:14:51.054Z,5.45
2022-08-19T09:17:21.964Z,5.70
2022-08-19T09:19:55.644Z,7.72
2022-08-19T09:22:25.858Z,7.25
2022-08-19T09:24:56.449Z,5.72
2022-08-19T09:27:42.423Z,6.18
2022-08-19T09:30:16.331Z,4.80
2022-08-19T09:32:44.986Z,8.35
2022-08-19T09:35:14.877Z,5.72
2022-08-19T09:37:43.632Z,8.55
2022-08-19T09:40:13.167Z,6.53
2022-08-19T09:42:50.326Z,7.18
2022-08-19T09:45:23.779Z,9.07
2022-08-19T09:47:54.355Z,8.38
2022-08-19T09:50:24.099Z,6.28
2022-08-19T09:52:57.202Z,7.55
2022-08-19T09:55:31.476Z,8.80
2022-08-19T09:58:05.332Z,10.68
2022-08-19T10:00:34.901Z,9.90
2022-08-19T10:03:02.884Z,6.80
2022-08-19T10:05:49.917Z,9.38
2022-08-19T10:08:20.789Z,7.93
2022-08-19T10:10:49.572Z,8.27
2022-08-19T10:13:22.869Z,7.38
2022-08-19T10:15:51.965Z,7.32
2022-08-19T10:18:21.539Z,8.43
2022-08-19T10:20:52.764Z,7.40
2022-08-19T10:23:21.743Z,9.85
2022-08-19T10:25:50.496Z,6.45
2022-08-19T10:28:19.805Z,7.88
2022-08-19T10:30:48.628Z,7.43
2022-08-19T10:33:38.547Z,8.00
2022-08-19T10:36:07.022Z,10.88
2022-08-19T10:38:36.003Z,8.68
2022-08-19T10:41:12.310Z,9.02
2022-08-19T10:43:41.732Z,7.22
2022-08-19T10:46:14.153Z,7.07
2022-08-19T10:48:45.799Z,8.48
2022-08-19T10:51:31.427Z,8.07
2022-08-19T10:54:01.010Z,10.52
2022-08-19T10:56:47.386Z,8.23
2022-08-19T10:59:18.515Z,11.07
2022-08-19T11:01:47.743Z,11.30
2022-08-19T11:04:20.154Z,8.73
2022-08-19T11:06:49.439Z,10.75
2022-08-19T11:09:20.132Z,11.27
2022-08-19T11:11:48.564Z,8.95
2022-08-19T11:14:21.271Z,10.55
2022-08-19T11:16:50.164Z,9.85
2022-08-19T11:19:19.997Z,9.35
2022-08-19T11:21:50.316Z,15.10
2022-08-19T11:24:20.786Z,10.73
2022-08-19T11:26:51.101Z,11.27
2022-08-19T11:29:22.308Z,9.38
2022-08-19T11:31:51.770Z,13.55
2022-08-19T11:34:22.186Z,10.05
2022-08-19T11:36:51.585Z,10.20
2022-08-19T11:39:21.727Z,12.13
2022-08-19T11:41:50.279Z,12.57
2022-08-19T11:44:19.692Z,12.55
2022-08-19T11:46:48.396Z,11.02
2022-08-19T11:49:17.702Z,12.55
2022-08-19T11:51:45.722Z,11.95
2022-08-19T11:54:14.912Z,12.65
2022-08-19T11:56:44.122Z,10.48
2022-08-19T11:59:14.752Z,11.30
2022-08-19T12:01:44.824Z,10.88
2022-08-19T12:04:13.168Z,13.02
2022-08-19T12:06:42.985Z,25.05
2022-08-19T12:09:12.323Z,11.98
2022-08-19T12:11:41.603Z,11.57
2022-08-19T12:14:15.059Z,10.98
2022-08-19T12:16:49.102Z,12.00
2022-08-19T12:19:22.345Z,11.35
2022-08-19T12:21:51.756Z,11.20
2022-08-19T12:24:23.825Z,10.75
2022-08-19T12:26:53.015Z,13.57
2022-08-19T12:29:23.960Z,10.27
2022-08-19T12:31:53.872Z,9.88
2022-08-19T12:34:22.148Z,11.35
2022-08-19T12:36:51.041Z,12.05
2022-08-19T12:39:19.112Z,11.02
2022-08-19T12:41:54.083Z,10.95
2022-08-19T12:44:29.420Z,12.02
2022-08-19T12:47:01.606Z,12.02
2022-08-19T12:49:52.042Z,11.88
2022-08-19T12:52:23.191Z,9.50
2022-08-19T12:54:54.432Z,11.35
2022-08-19T12:57:31.556Z,12.48
2022-08-19T13:00:05.192Z,15.23
2022-08-19T13:02:38.496Z,11.32
2022-08-19T13:05:10.214Z,11.90
2022-08-19T13:07:39.397Z,13.02
2022-08-19T13:10:08.840Z,10.23
2022-08-19T13:12:37.020Z,9.80
2022-08-19T13:15:10.541Z,9.90
2022-08-19T13:17:41.234Z,12.27
2022-08-19T13:20:12.137Z,10.52
2022-08-19T13:22:40.374Z,12.70
2022-08-19T13:25:09.659Z,12.68
2022-08-19T13:27:38.461Z,11.20
2022-08-19T13:30:26.331Z,9.55
2022-08-19T13:33:15.455Z,9.55
2022-08-19T13:35:48.634Z,14.10
2022-08-19T13:38:18.538Z,8.85
2022-08-19T13:40:48.254Z,9.63
2022-08-19T13:43:22.579Z,9.45
2022-08-19T13:45:53.558Z,8.18
2022-08-19T13:48:23.625Z,9.70
2022-08-19T13:50:51.619Z,8.18
2022-08-19T13:53:20.122Z,8.73
2022-08-19T13:55:48.266Z,7.15
2022-08-19T13:58:16.235Z,8.88
2022-08-19T14:00:46.520Z,11.25
2022-08-19T14:03:14.695Z,7.78
2022-08-19T14:05:44.006Z,8.10
2022-08-19T14:08:15.012Z,9.73
2022-08-19T14:10:45.164Z,7.60
2022-08-19T14:13:16.013Z,8.68
2022-08-19T14:15:44.005Z,8.07
2022-08-19T14:18:12.234Z,8.25
2022-08-19T14:20:40.332Z,9.40
2022-08-19T14:23:09.722Z,8.27
2022-08-19T14:25:38.628Z,7.05
2022-08-19T14:28:07.675Z,7.05
2022-08-19T14:30:38.647Z,7.72
2022-08-19T14:33:08.183Z,6.80
2022-08-19T14:35:36.684Z,6.68
2022-08-19T14:38:06.602Z,6.47
2022-08-19T14:40:36.032Z,6.13
2022-08-19T14:43:06.407Z,7.47
2022-08-19T14:45:36.898Z,6.57
2022-08-19T14:48:05.776Z,6.68
2022-08-19T14:50:34.619Z,8.73
2022-08-19T14:53:11.968Z,5.85
2022-08-19T14:55:44.165Z,6.78
2022-08-19T14:58:28.901Z,9.48
2022-08-19T15:00:59.879Z,7.18
2022-08-19T15:03:28.199Z,8.25
2022-08-19T15:05:56.443Z,6.40
2022-08-19T15:08:25.686Z,7.07
2022-08-19T15:10:55.532Z,8.65
2022-08-19T15:13:23.630Z,6.35
2022-08-19T15:15:52.563Z,6.57
2022-08-19T15:18:21.333Z,6.43
2022-08-19T15:20:50.099Z,6.70
2022-08-19T15:23:19.411Z,6.32
2022-08-19T15:25:47.639Z,7.78
2022-08-19T15:28:17.330Z,8.27
2022-08-19T15:30:45.397Z,9.02
2022-08-19T15:33:15.077Z,6.07
2022-08-19T15:35:43.402Z,6.43
2022-08-19T15:38:13.740Z,7.97
2022-08-19T15:40:42.838Z,7.50
2022-08-19T15:43:11.437Z,6.55
2022-08-19T15:45:44.316Z,7.35
2022-08-19T15:48:15.757Z,6.38
2022-08-19T15:50:43.798Z,6.55
2022-08-19T15:53:12.524Z,7.80
2022-08-19T15:55:45.546Z,6.57
2022-08-19T15:58:32.801Z,6.03
2022-08-19T16:01:23.681Z,6.70
2022-08-19T16:04:14.356Z,5.47
2022-08-19T16:06:45.677Z,8.75
2022-08-19T16:09:14.140Z,7.13
2022-08-19T16:11:45.878Z,6.00
2022-08-19T16:14:15.230Z,7.10
2022-08-19T16:16:47.058Z,5.57
2022-08-19T16:19:17.570Z,6.43
2022-08-19T16:21:47.111Z,6.63
2022-08-19T16:24:17.748Z,5.35
2022-08-19T16:26:46.883Z,6.15
2022-08-19T16:29:34.058Z,6.07
2022-08-19T16:32:06.444Z,5.75
2022-08-19T16:34:34.632Z,5.30
2022-08-19T16:37:02.892Z,6.13
2022-08-19T16:39:30.970Z,6.85
2022-08-19T16:41:59.786Z,6.30
2022-08-19T16:44:29.906Z,5.93
2022-08-19T16:46:59.511Z,6.30
2022-08-19T16:49:53.210Z,8.05
2022-08-19T16:52:19.781Z,6.30
2022-08-19T16:54:48.811Z,6.43
2022-08-19T16:57:16.869Z,8.10
2022-08-19T16:59:48.817Z,6.35
2022-08-19T17:02:18.630Z,6.50
2022-08-19T17:04:57.539Z,7.18
2022-08-19T17:07:27.658Z,7.28
2022-08-19T17:09:55.859Z,6.95
2022-08-19T17:12:31.869Z,8.75
2022-08-19T17:15:01.353Z,9.23
2022-08-19T17:17:30.247Z,8.20
2022-08-19T17:20:00.611Z,8.27
2022-08-19T17:22:29.626Z,12.38
2022-08-19T17:24:58.590Z,16.25
2022-08-19T17:27:32.001Z,23.88
2022-08-19T17:30:02.327Z,11.45
2022-08-19T17:32:30.883Z,11.15
2022-08-19T17:35:00.199Z,10.07
2022-08-19T17:37:28.290Z,11.18
2022-08-19T17:39:56.520Z,8.95
2022-08-19T17:42:24.555Z,8.88
2022-08-19T17:44:52.557Z,8.23
2022-08-19T17:47:21.059Z,8.60
2022-08-19T17:49:49.367Z,8.75
2022-08-19T17:52:18.759Z,7.28
2022-08-19T17:54:47.154Z,9.15
2022-08-19T17:57:15.128Z,10.00
2022-08-19T17:59:43.247Z,11.15
2022-08-19T18:02:12.431Z,8.52
2022-08-19T18:04:40.571Z,10.20
2022-08-19T18:07:08.546Z,7.63
2022-08-19T18:09:42.870Z,9.18
2022-08-19T18:12:18.040Z,8.15
2022-08-19T18:14:46.354Z,8.70
2022-08-19T18:17:19.119Z,10.98
2022-08-19T18:19:48.743Z,8.48
2022-08-19T18:22:25.498Z,11.43
2022-08-19T18:24:55.057Z,10.25
2022-08-19T18:27:23.066Z,10.05
2022-08-19T18:29:51.190Z,10.30
2022-08-19T18:32:23.961Z,8.70
2022-08-19T18:34:52.941Z,9.73
2022-08-19T18:37:21.186Z,8.65
2022-08-19T18:40:06.867Z,9.73
2022-08-19T18:42:53.979Z,10.45
2022-08-19T18:45:39.449Z,9.85
2022-08-19T18:48:29.798Z,10.38
2022-08-19T18:50:59.985Z,9.02
2022-08-19T18:53:30.616Z,9.52
2022-08-19T18:55:59.422Z,10.23
2022-08-19T18:58:34.220Z,11.35
2022-08-19T19:01:12.996Z,10.10
2022-08-19T19:03:45.185Z,10.57
2022-08-19T19:06:15.193Z,11.95
2022-08-19T19:08:43.842Z,9.65
2022-08-19T19:11:11.975Z,10.20
2022-08-19T19:13:41.626Z,9.60
2022-08-19T19:16:11.459Z,11.73
2022-08-19T19:18:39.774Z,9.60
2022-08-19T19:21:08.656Z,10.02
2022-08-19T19:23:40.540Z,9.98
2022-08-19T19:26:10.397Z,8.13
2022-08-19T19:28:43.879Z,9.57
2022-08-19T19:31:16.362Z,8.02
2022-08-19T19:33:45.306Z,9.52
2022-08-19T19:36:13.610Z,9.23
2022-08-19T19:38:48.289Z,8.77
2022-08-19T19:41:20.838Z,10.05
2022-08-19T19:44:04.551Z,12.40
2022-08-19T19:46:40.282Z,9.85
2022-08-19T19:49:08.235Z,10.82
2022-08-19T19:51:39.465Z,10.18
2022-08-19T19:54:13.467Z,9.68
2022-08-19T19:56:45.470Z,8.40
2022-08-19T19:59:13.864Z,10.30
2022-08-19T20:01:46.958Z,8.93
2022-08-19T20:04:15.638Z,8.75
2022-08-19T20:06:44.839Z,8.90
2022-08-19T20:09:15.251Z,9.05
2022-08-19T20:11:49.506Z,11.30
2022-08-19T20:14:25.454Z,9.90
2022-08-19T20:16:56.821Z,10.13
2022-08-19T20:19:27.413Z,9.57
2022-08-19T20:21:57.334Z,10.40
2022-08-19T20:24:28.228Z,11.90
2022-08-19T20:26:56.205Z,9.85
2022-08-19T20:29:40.095Z,10.85
2022-08-19T20:32:10.186Z,8.73
2022-08-19T20:34:39.104Z,9.07
2022-08-19T20:37:09.091Z,10.48
2022-08-19T20:39:37.340Z,8.63
2022-08-19T20:42:05.675Z,11.38
2022-08-19T20:44:33.849Z,10.23
2022-08-19T20:47:03.996Z,9.63
2022-08-19T20:49:35.158Z,8.32
2022-08-19T20:52:03.679Z,11.00
2022-08-19T20:54:32.000Z,9.10
2022-08-19T20:57:00.492Z,9.15
2022-08-19T20:59:28.508Z,11.43
2022-08-19T21:01:57.394Z,11.93
2022-08-19T21:04:26.682Z,10.32
2022-08-19T21:06:56.430Z,8.65
2022-08-19T21:09:24.396Z,12.07
2022-08-19T21:11:53.220Z,8.95
2022-08-19T21:14:21.205Z,10.57
2022-08-19T21:16:49.270Z,9.65
2022-08-19T21:19:22.009Z,10.32
2022-08-19T21:21:52.007Z,8.45
2022-08-19T21:24:21.575Z,11.48
2022-08-19T21:26:54.475Z,7.78
2022-08-19T21:29:22.545Z,8.57
2022-08-19T21:31:51.164Z,8.98
2022-08-19T21:34:19.311Z,9.27
2022-08-19T21:36:47.243Z,8.63
2022-08-19T21:39:15.205Z,10.80
2022-08-19T21:41:44.481Z,7.57
2022-08-19T21:44:12.762Z,7.45
2022-08-19T21:46:40.795Z,8.40
2022-08-19T21:49:08.773Z,11.90
2022-08-19T21:51:36.688Z,8.95
2022-08-19T21:54:05.376Z,10.25
2022-08-19T21:56:33.553Z,9.10
2022-08-19T21:59:02.918Z,6.70
2022-08-19T22:01:30.974Z,7.88
2022-08-19T22:03:59.023Z,7.28
2022-08-19T22:06:27.039Z,7.28
2022-08-19T22:08:55.362Z,7.15
2022-08-19T22:11:23.497Z,9.35
2022-08-19T22:13:53.708Z,6.78
2022-08-19T22:16:23.814Z,7.22
2022-08-19T22:18:52.122Z,9.43
2022-08-19T22:21:39.864Z,9.00
2022-08-19T22:24:10.049Z,7.38
2022-08-19T22:26:38.245Z,7.75
2022-08-19T22:29:07.507Z,7.03
2022-08-19T22:31:37.510Z,8.40
2022-08-19T22:34:06.756Z,7.32
2022-08-19T22:36:35.378Z,8.32
2022-08-19T22:39:04.017Z,8.13
2022-08-19T22:41:33.638Z,8.45
2022-08-19T22:44:02.066Z,7.20
2022-08-19T22:46:34.127Z,7.00
2022-08-19T22:49:03.445Z,6.82
2022-08-19T22:51:49.413Z,6.65
2022-08-19T22:54:17.605Z,5.90
2022-08-19T22:56:45.609Z,7.32
2022-08-19T22:59:13.873Z,7.00
2022-08-19T23:01:42.634Z,8.52
2022-08-19T23:04:12.346Z,6.13
2022-08-19T23:06:42.277Z,6.03
2022-08-19T23:09:16.693Z,7.00
2022-08-19T23:11:45.794Z,6.18
2022-08-19T23:14:14.621Z,6.18
2022-08-19T23:16:45.063Z,5.70
2022-08-19T23:19:17.329Z,6.30
2022-08-19T23:21:45.302Z,6.10
2022-08-19T23:24:13.462Z,6.38
2022-08-19T23:27:03.194Z,5.35
2022-08-19T23:29:49.203Z,8.57
2022-08-19T23:32:18.125Z,5.38
2022-08-19T23:34:48.140Z,6.32
2022-08-19T23:37:16.618Z,9.45
2022-08-19T23:39:45.389Z,5.70
2022-08-19T23:42:13.581Z,6.05
2022-08-19T23:44:52.132Z,5.80
2022-08-19T23:47:21.945Z,6.32
2022-08-19T23:49:51.562Z,7.07
2022-08-19T23:52:20.071Z,5.38
2022-08-19T23:54:48.089Z,5.82
2022-08-19T23:57:16.347Z,6.05
2022-08-19T23:59:45.989Z,5.72
